sensor_id;sensor_type;location;lat;lon;timestamp;P1;durP1;ratioP1;P2;durP2;ratioP2
48554;SDS011;34336;48.270;16.716;2024-02-26T00:01:32;11.32;;;6.20;;
48554;SDS011;34336;48.270;16.716;2024-02-26T00:04:00;11.05;;;6.70;;
48554;SDS011;34336;48.270;16.716;2024-02-26T00:06:29;13.23;;;7.35;;
48554;SDS011;34336;48.270;16.716;2024-02-26T00:08:58;11.13;;;6.50;;
48554;SDS011;34336;48.270;16.716;2024-02-26T00:11:25;12.10;;;6.78;;
48554;SDS011;34336;48.270;16.716;2024-02-26T00:13:53;11.40;;;6.97;;
48554;SDS011;34336;48.270;16.716;2024-02-26T00:16:21;10.60;;;6.20;;
48554;SDS011;34336;48.270;16.716;2024-02-26T00:18:49;11.73;;;6.43;;
48554;SDS011;34336;48.270;16.716;2024-02-26T00:21:17;14.18;;;8.23;;
48554;SDS011;34336;48.270;16.716;2024-02-26T00:23:44;15.68;;;7.65;;
48554;SDS011;34336;48.270;16.716;2024-02-26T00:26:12;13.05;;;7.57;;
48554;SDS011;34336;48.270;16.716;2024-02-26T00:28:41;14.25;;;8.23;;
48554;SDS011;34336;48.270;16.716;2024-02-26T00:31:09;15.05;;;8.10;;
48554;SDS011;34336;48.270;16.716;2024-02-26T00:33:37;15.10;;;7.90;;
48554;SDS011;34336;48.270;16.716;2024-02-26T00:36:05;11.90;;;8.02;;
48554;SDS011;34336;48.270;16.716;2024-02-26T00:38:33;13.43;;;7.50;;
48554;SDS011;34336;48.270;16.716;2024-02-26T00:41:01;12.50;;;8.07;;
48554;SDS011;34336;48.270;16.716;2024-02-26T00:43:28;13.10;;;8.60;;
48554;SDS011;34336;48.270;16.716;2024-02-26T00:45:56;15.73;;;8.45;;
48554;SDS011;34336;48.270;16.716;2024-02-26T00:48:24;14.57;;;8.88;;
48554;SDS011;34336;48.270;16.716;2024-02-26T00:50:52;14.68;;;8.88;;
48554;SDS011;34336;48.270;16.716;2024-02-26T00:53:20;12.35;;;8.27;;
48554;SDS011;34336;48.270;16.716;2024-02-26T00:55:48;14.15;;;8.48;;
48554;SDS011;34336;48.270;16.716;2024-02-26T00:58:15;12.75;;;8.38;;
48554;SDS011;34336;48.270;16.716;2024-02-26T01:00:43;15.32;;;8.27;;
48554;SDS011;34336;48.270;16.716;2024-02-26T01:03:11;18.58;;;8.45;;
48554;SDS011;34336;48.270;16.716;2024-02-26T01:05:39;13.20;;;8.52;;
48554;SDS011;34336;48.270;16.716;2024-02-26T01:08:07;14.07;;;8.65;;
48554;SDS011;34336;48.270;16.716;2024-02-26T01:10:35;12.45;;;8.23;;
48554;SDS011;34336;48.270;16.716;2024-02-26T01:13:02;17.83;;;8.90;;
48554;SDS011;34336;48.270;16.716;2024-02-26T01:15:30;15.07;;;8.18;;
48554;SDS011;34336;48.270;16.716;2024-02-26T01:17:58;12.85;;;8.02;;
48554;SDS011;34336;48.270;16.716;2024-02-26T01:20:26;15.10;;;8.27;;
48554;SDS011;34336;48.270;16.716;2024-02-26T01:22:53;16.38;;;9.07;;
48554;SDS011;34336;48.270;16.716;2024-02-26T01:25:21;15.73;;;8.40;;
48554;SDS011;34336;48.270;16.716;2024-02-26T01:27:49;13.93;;;8.05;;
48554;SDS011;34336;48.270;16.716;2024-02-26T01:30:16;14.15;;;8.68;;
48554;SDS011;34336;48.270;16.716;2024-02-26T01:32:45;14.32;;;8.05;;
48554;SDS011;34336;48.270;16.716;2024-02-26T01:35:12;14.95;;;8.23;;
48554;SDS011;34336;48.270;16.716;2024-02-26T01:37:40;16.00;;;8.70;;
48554;SDS011;34336;48.270;16.716;2024-02-26T01:40:08;13.93;;;8.23;;
48554;SDS011;34336;48.270;16.716;2024-02-26T01:42:39;15.57;;;9.10;;
48554;SDS011;34336;48.270;16.716;2024-02-26T01:45:09;14.40;;;7.90;;
48554;SDS011;34336;48.270;16.716;2024-02-26T01:47:42;15.43;;;8.45;;
48554;SDS011;34336;48.270;16.716;2024-02-26T01:50:12;13.48;;;7.78;;
48554;SDS011;34336;48.270;16.716;2024-02-26T01:52:40;13.95;;;8.40;;
48554;SDS011;34336;48.270;16.716;2024-02-26T01:55:08;15.18;;;8.48;;
48554;SDS011;34336;48.270;16.716;2024-02-26T01:57:36;14.85;;;7.78;;
48554;SDS011;34336;48.270;16.716;2024-02-26T02:00:03;14.88;;;8.70;;
48554;SDS011;34336;48.270;16.716;2024-02-26T02:02:33;13.85;;;8.20;;
48554;SDS011;34336;48.270;16.716;2024-02-26T02:05:01;14.27;;;7.75;;
48554;SDS011;34336;48.270;16.716;2024-02-26T02:07:30;12.43;;;8.38;;
48554;SDS011;34336;48.270;16.716;2024-02-26T02:09:58;17.50;;;8.60;;
48554;SDS011;34336;48.270;16.716;2024-02-26T02:12:25;16.35;;;8.88;;
48554;SDS011;34336;48.270;16.716;2024-02-26T02:14:54;13.18;;;8.93;;
48554;SDS011;34336;48.270;16.716;2024-02-26T02:17:22;14.88;;;9.45;;
48554;SDS011;34336;48.270;16.716;2024-02-26T02:19:49;14.43;;;9.10;;
48554;SDS011;34336;48.270;16.716;2024-02-26T02:22:17;18.50;;;9.52;;
48554;SDS011;34336;48.270;16.716;2024-02-26T02:24:45;15.70;;;9.75;;
48554;SDS011;34336;48.270;16.716;2024-02-26T02:27:14;15.20;;;9.20;;
48554;SDS011;34336;48.270;16.716;2024-02-26T02:29:42;17.85;;;10.75;;
48554;SDS011;34336;48.270;16.716;2024-02-26T02:32:10;16.00;;;9.93;;
48554;SDS011;34336;48.270;16.716;2024-02-26T02:34:38;14.25;;;9.63;;
48554;SDS011;34336;48.270;16.716;2024-02-26T02:37:06;17.05;;;10.43;;
48554;SDS011;34336;48.270;16.716;2024-02-26T02:39:33;16.38;;;10.45;;
48554;SDS011;34336;48.270;16.716;2024-02-26T02:42:01;17.95;;;10.55;;
48554;SDS011;34336;48.270;16.716;2024-02-26T02:44:29;17.98;;;10.68;;
48554;SDS011;34336;48.270;16.716;2024-02-26T02:46:57;19.90;;;10.70;;
48554;SDS011;34336;48.270;16.716;2024-02-26T02:49:24;17.30;;;9.52;;
48554;SDS011;34336;48.270;16.716;2024-02-26T02:51:52;17.15;;;10.85;;
48554;SDS011;34336;48.270;16.716;2024-02-26T02:54:21;18.70;;;11.07;;
48554;SDS011;34336;48.270;16.716;2024-02-26T02:56:49;16.20;;;9.82;;
48554;SDS011;34336;48.270;16.716;2024-02-26T02:59:16;20.08;;;10.70;;
48554;SDS011;34336;48.270;16.716;2024-02-26T03:01:44;18.33;;;10.48;;
48554;SDS011;34336;48.270;16.716;2024-02-26T03:04:12;18.85;;;11.10;;
48554;SDS011;34336;48.270;16.716;2024-02-26T03:06:40;18.02;;;10.85;;
48554;SDS011;34336;48.270;16.716;2024-02-26T03:09:07;22.08;;;10.95;;
48554;SDS011;34336;48.270;16.716;2024-02-26T03:11:35;18.35;;;11.20;;
48554;SDS011;34336;48.270;16.716;2024-02-26T03:14:03;17.63;;;10.45;;
48554;SDS011;34336;48.270;16.716;2024-02-26T03:16:31;18.35;;;10.35;;
48554;SDS011;34336;48.270;16.716;2024-02-26T03:18:59;18.27;;;10.80;;
48554;SDS011;34336;48.270;16.716;2024-02-26T03:21:27;17.42;;;10.43;;
48554;SDS011;34336;48.270;16.716;2024-02-26T03:23:55;18.17;;;10.98;;
48554;SDS011;34336;48.270;16.716;2024-02-26T03:26:24;16.75;;;10.90;;
48554;SDS011;34336;48.270;16.716;2024-02-26T03:28:51;20.75;;;11.02;;
48554;SDS011;34336;48.270;16.716;2024-02-26T03:31:19;23.67;;;11.80;;
48554;SDS011;34336;48.270;16.716;2024-02-26T03:33:48;22.30;;;11.07;;
48554;SDS011;34336;48.270;16.716;2024-02-26T03:36:16;19.45;;;11.10;;
48554;SDS011;34336;48.270;16.716;2024-02-26T03:38:44;20.55;;;12.00;;
48554;SDS011;34336;48.270;16.716;2024-02-26T03:41:12;22.33;;;12.27;;
48554;SDS011;34336;48.270;16.716;2024-02-26T03:43:39;24.45;;;13.00;;
48554;SDS011;34336;48.270;16.716;2024-02-26T03:46:07;26.05;;;13.25;;
48554;SDS011;34336;48.270;16.716;2024-02-26T03:48:36;23.25;;;14.02;;
48554;SDS011;34336;48.270;16.716;2024-02-26T03:51:03;24.20;;;13.30;;
48554;SDS011;34336;48.270;16.716;2024-02-26T03:53:31;25.15;;;14.35;;
48554;SDS011;34336;48.270;16.716;2024-02-26T03:56:02;26.13;;;14.02;;
48554;SDS011;34336;48.270;16.716;2024-02-26T03:58:30;26.40;;;13.85;;
48554;SDS011;34336;48.270;16.716;2024-02-26T04:00:59;26.70;;;14.02;;
48554;SDS011;34336;48.270;16.716;2024-02-26T04:03:26;25.27;;;13.93;;
48554;SDS011;34336;48.270;16.716;2024-02-26T04:05:54;25.42;;;13.73;;
48554;SDS011;34336;48.270;16.716;2024-02-26T04:08:22;25.60;;;13.80;;
48554;SDS011;34336;48.270;16.716;2024-02-26T04:10:50;29.00;;;13.95;;
48554;SDS011;34336;48.270;16.716;2024-02-26T04:13:18;24.17;;;14.32;;
48554;SDS011;34336;48.270;16.716;2024-02-26T04:15:46;25.65;;;14.73;;
48554;SDS011;34336;48.270;16.716;2024-02-26T04:18:13;24.55;;;15.20;;
48554;SDS011;34336;48.270;16.716;2024-02-26T04:20:41;26.13;;;14.82;;
48554;SDS011;34336;48.270;16.716;2024-02-26T04:23:09;30.25;;;15.93;;
48554;SDS011;34336;48.270;16.716;2024-02-26T04:25:37;26.67;;;15.68;;
48554;SDS011;34336;48.270;16.716;2024-02-26T04:28:04;26.98;;;14.52;;
48554;SDS011;34336;48.270;16.716;2024-02-26T04:30:32;29.80;;;15.75;;
48554;SDS011;34336;48.270;16.716;2024-02-26T04:33:00;28.92;;;15.63;;
48554;SDS011;34336;48.270;16.716;2024-02-26T04:35:28;29.88;;;16.13;;
48554;SDS011;34336;48.270;16.716;2024-02-26T04:37:56;30.75;;;16.92;;
48554;SDS011;34336;48.270;16.716;2024-02-26T04:40:23;27.85;;;16.63;;
48554;SDS011;34336;48.270;16.716;2024-02-26T04:42:51;33.63;;;17.67;;
48554;SDS011;34336;48.270;16.716;2024-02-26T04:45:19;31.90;;;16.33;;
48554;SDS011;34336;48.270;16.716;2024-02-26T04:47:46;32.75;;;17.58;;
48554;SDS011;34336;48.270;16.716;2024-02-26T04:50:14;27.90;;;16.90;;
48554;SDS011;34336;48.270;16.716;2024-02-26T04:52:42;28.08;;;16.95;;
48554;SDS011;34336;48.270;16.716;2024-02-26T04:55:10;32.13;;;18.38;;
48554;SDS011;34336;48.270;16.716;2024-02-26T04:57:37;31.92;;;17.48;;
48554;SDS011;34336;48.270;16.716;2024-02-26T05:00:05;31.90;;;17.83;;
48554;SDS011;34336;48.270;16.716;2024-02-26T05:02:33;28.70;;;16.38;;
48554;SDS011;34336;48.270;16.716;2024-02-26T05:05:05;30.40;;;17.58;;
48554;SDS011;34336;48.270;16.716;2024-02-26T05:07:33;29.10;;;16.38;;
48554;SDS011;34336;48.270;16.716;2024-02-26T05:10:00;30.05;;;16.83;;
48554;SDS011;34336;48.270;16.716;2024-02-26T05:12:28;29.83;;;16.55;;
48554;SDS011;34336;48.270;16.716;2024-02-26T05:14:56;25.52;;;15.52;;
48554;SDS011;34336;48.270;16.716;2024-02-26T05:17:23;29.05;;;16.38;;
48554;SDS011;34336;48.270;16.716;2024-02-26T05:19:52;27.60;;;15.40;;
48554;SDS011;34336;48.270;16.716;2024-02-26T05:22:20;25.60;;;14.93;;
48554;SDS011;34336;48.270;16.716;2024-02-26T05:24:47;21.98;;;14.00;;
48554;SDS011;34336;48.270;16.716;2024-02-26T05:27:15;29.55;;;15.43;;
48554;SDS011;34336;48.270;16.716;2024-02-26T05:29:43;24.48;;;15.15;;
48554;SDS011;34336;48.270;16.716;2024-02-26T05:32:11;25.40;;;14.73;;
48554;SDS011;34336;48.270;16.716;2024-02-26T05:34:38;26.63;;;14.73;;
48554;SDS011;34336;48.270;16.716;2024-02-26T05:37:08;26.48;;;14.75;;
48554;SDS011;34336;48.270;16.716;2024-02-26T05:39:35;24.30;;;13.70;;
48554;SDS011;34336;48.270;16.716;2024-02-26T05:42:03;30.52;;;15.48;;
48554;SDS011;34336;48.270;16.716;2024-02-26T05:44:31;25.92;;;14.90;;
48554;SDS011;34336;48.270;16.716;2024-02-26T05:46:59;24.05;;;14.07;;
48554;SDS011;34336;48.270;16.716;2024-02-26T05:49:30;25.15;;;14.57;;
48554;SDS011;34336;48.270;16.716;2024-02-26T05:51:59;26.70;;;15.27;;
48554;SDS011;34336;48.270;16.716;2024-02-26T05:54:26;25.92;;;14.70;;
48554;SDS011;34336;48.270;16.716;2024-02-26T05:56:54;25.58;;;14.43;;
48554;SDS011;34336;48.270;16.716;2024-02-26T05:59:22;21.33;;;13.50;;
48554;SDS011;34336;48.270;16.716;2024-02-26T06:01:49;24.88;;;14.27;;
48554;SDS011;34336;48.270;16.716;2024-02-26T06:04:17;26.38;;;14.40;;
48554;SDS011;34336;48.270;16.716;2024-02-26T06:06:45;23.58;;;14.40;;
48554;SDS011;34336;48.270;16.716;2024-02-26T06:09:13;27.15;;;15.00;;
48554;SDS011;34336;48.270;16.716;2024-02-26T06:11:41;22.73;;;13.60;;
48554;SDS011;34336;48.270;16.716;2024-02-26T06:14:09;25.40;;;13.73;;
48554;SDS011;34336;48.270;16.716;2024-02-26T06:16:38;23.00;;;13.10;;
48554;SDS011;34336;48.270;16.716;2024-02-26T06:19:06;20.80;;;12.93;;
48554;SDS011;34336;48.270;16.716;2024-02-26T06:21:37;23.10;;;13.95;;
48554;SDS011;34336;48.270;16.716;2024-02-26T06:24:05;21.67;;;13.70;;
48554;SDS011;34336;48.270;16.716;2024-02-26T06:26:32;24.52;;;14.23;;
48554;SDS011;34336;48.270;16.716;2024-02-26T06:29:00;21.33;;;13.48;;
48554;SDS011;34336;48.270;16.716;2024-02-26T06:31:28;23.20;;;12.85;;
48554;SDS011;34336;48.270;16.716;2024-02-26T06:33:55;21.77;;;12.68;;
48554;SDS011;34336;48.270;16.716;2024-02-26T06:36:23;20.80;;;12.00;;
48554;SDS011;34336;48.270;16.716;2024-02-26T06:38:52;18.02;;;11.25;;
48554;SDS011;34336;48.270;16.716;2024-02-26T06:41:21;18.38;;;11.40;;
48554;SDS011;34336;48.270;16.716;2024-02-26T06:43:54;17.73;;;11.07;;
48554;SDS011;34336;48.270;16.716;2024-02-26T06:46:22;17.52;;;10.85;;
48554;SDS011;34336;48.270;16.716;2024-02-26T06:48:50;17.17;;;11.23;;
48554;SDS011;34336;48.270;16.716;2024-02-26T06:51:21;17.17;;;10.05;;
48554;SDS011;34336;48.270;16.716;2024-02-26T06:53:49;16.08;;;10.77;;
48554;SDS011;34336;48.270;16.716;2024-02-26T06:56:17;16.95;;;11.05;;
48554;SDS011;34336;48.270;16.716;2024-02-26T06:58:44;17.40;;;10.60;;
48554;SDS011;34336;48.270;16.716;2024-02-26T07:01:12;18.65;;;10.55;;
48554;SDS011;34336;48.270;16.716;2024-02-26T07:03:40;12.75;;;8.98;;
48554;SDS011;34336;48.270;16.716;2024-02-26T07:06:08;14.98;;;9.43;;
48554;SDS011;34336;48.270;16.716;2024-02-26T07:08:36;14.10;;;9.40;;
48554;SDS011;34336;48.270;16.716;2024-02-26T07:11:06;13.90;;;9.18;;
48554;SDS011;34336;48.270;16.716;2024-02-26T07:13:35;11.35;;;8.07;;
48554;SDS011;34336;48.270;16.716;2024-02-26T07:16:03;13.63;;;9.20;;
48554;SDS011;34336;48.270;16.716;2024-02-26T07:18:31;12.57;;;8.38;;
48554;SDS011;34336;48.270;16.716;2024-02-26T07:21:01;13.68;;;8.43;;
48554;SDS011;34336;48.270;16.716;2024-02-26T07:23:29;11.88;;;8.43;;
48554;SDS011;34336;48.270;16.716;2024-02-26T07:25:56;12.32;;;8.60;;
48554;SDS011;34336;48.270;16.716;2024-02-26T07:28:24;12.25;;;9.05;;
48554;SDS011;34336;48.270;16.716;2024-02-26T07:30:52;16.10;;;9.95;;
48554;SDS011;34336;48.270;16.716;2024-02-26T07:33:20;16.20;;;9.57;;
48554;SDS011;34336;48.270;16.716;2024-02-26T07:35:48;13.60;;;9.02;;
48554;SDS011;34336;48.270;16.716;2024-02-26T07:38:15;12.85;;;9.15;;
48554;SDS011;34336;48.270;16.716;2024-02-26T07:40:58;11.50;;;8.18;;
48554;SDS011;34336;48.270;16.716;2024-02-26T07:43:29;13.65;;;8.18;;
48554;SDS011;34336;48.270;16.716;2024-02-26T07:45:57;13.70;;;8.63;;
48554;SDS011;34336;48.270;16.716;2024-02-26T07:48:25;11.00;;;7.70;;
48554;SDS011;34336;48.270;16.716;2024-02-26T07:50:53;11.68;;;6.63;;
48554;SDS011;34336;48.270;16.716;2024-02-26T07:53:21;8.77;;;6.25;;
48554;SDS011;34336;48.270;16.716;2024-02-26T07:55:48;8.68;;;6.25;;
48554;SDS011;34336;48.270;16.716;2024-02-26T07:58:16;10.27;;;6.20;;
48554;SDS011;34336;48.270;16.716;2024-02-26T08:00:44;12.88;;;6.65;;
48554;SDS011;34336;48.270;16.716;2024-02-26T08:03:13;9.02;;;6.13;;
48554;SDS011;34336;48.270;16.716;2024-02-26T08:05:42;11.02;;;6.10;;
48554;SDS011;34336;48.270;16.716;2024-02-26T08:08:10;8.07;;;5.80;;
48554;SDS011;34336;48.270;16.716;2024-02-26T08:10:38;10.85;;;6.60;;
48554;SDS011;34336;48.270;16.716;2024-02-26T08:13:06;10.90;;;6.60;;
48554;SDS011;34336;48.270;16.716;2024-02-26T08:15:34;9.25;;;6.15;;
48554;SDS011;34336;48.270;16.716;2024-02-26T08:18:02;9.13;;;5.90;;
48554;SDS011;34336;48.270;16.716;2024-02-26T08:20:30;11.02;;;5.80;;
48554;SDS011;34336;48.270;16.716;2024-02-26T08:22:58;7.88;;;5.05;;
48554;SDS011;34336;48.270;16.716;2024-02-26T08:25:26;7.65;;;5.20;;
48554;SDS011;34336;48.270;16.716;2024-02-26T08:27:54;7.38;;;4.88;;
48554;SDS011;34336;48.270;16.716;2024-02-26T08:30:21;7.00;;;4.75;;
48554;SDS011;34336;48.270;16.716;2024-02-26T08:32:49;6.53;;;4.88;;
48554;SDS011;34336;48.270;16.716;2024-02-26T08:35:18;8.05;;;5.30;;
48554;SDS011;34336;48.270;16.716;2024-02-26T08:37:47;10.05;;;5.40;;
48554;SDS011;34336;48.270;16.716;2024-02-26T08:40:15;9.15;;;5.30;;
48554;SDS011;34336;48.270;16.716;2024-02-26T08:42:42;9.20;;;5.85;;
48554;SDS011;34336;48.270;16.716;2024-02-26T08:45:10;10.32;;;6.03;;
48554;SDS011;34336;48.270;16.716;2024-02-26T08:47:39;8.10;;;5.80;;
48554;SDS011;34336;48.270;16.716;2024-02-26T08:50:07;9.02;;;5.70;;
48554;SDS011;34336;48.270;16.716;2024-02-26T08:52:36;7.50;;;5.50;;
48554;SDS011;34336;48.270;16.716;2024-02-26T08:55:04;8.68;;;5.68;;
48554;SDS011;34336;48.270;16.716;2024-02-26T08:57:32;11.05;;;6.10;;
48554;SDS011;34336;48.270;16.716;2024-02-26T09:00:01;10.90;;;6.25;;
48554;SDS011;34336;48.270;16.716;2024-02-26T09:02:29;10.20;;;6.22;;
48554;SDS011;34336;48.270;16.716;2024-02-26T09:04:56;8.77;;;5.82;;
48554;SDS011;34336;48.270;16.716;2024-02-26T09:07:24;8.52;;;5.53;;
48554;SDS011;34336;48.270;16.716;2024-02-26T09:09:55;10.18;;;5.72;;
48554;SDS011;34336;48.270;16.716;2024-02-26T09:12:23;11.25;;;5.70;;
48554;SDS011;34336;48.270;16.716;2024-02-26T09:14:51;9.27;;;5.63;;
48554;SDS011;34336;48.270;16.716;2024-02-26T09:17:19;9.30;;;5.60;;
48554;SDS011;34336;48.270;16.716;2024-02-26T09:19:46;8.07;;;5.68;;
48554;SDS011;34336;48.270;16.716;2024-02-26T09:22:14;9.65;;;6.18;;
48554;SDS011;34336;48.270;16.716;2024-02-26T09:24:44;8.63;;;5.80;;
48554;SDS011;34336;48.270;16.716;2024-02-26T09:27:12;8.95;;;6.07;;
48554;SDS011;34336;48.270;16.716;2024-02-26T09:29:40;8.50;;;5.65;;
48554;SDS011;34336;48.270;16.716;2024-02-26T09:32:08;8.90;;;5.63;;
48554;SDS011;34336;48.270;16.716;2024-02-26T09:34:35;8.07;;;5.10;;
48554;SDS011;34336;48.270;16.716;2024-02-26T09:37:03;7.85;;;5.18;;
48554;SDS011;34336;48.270;16.716;2024-02-26T09:39:46;8.00;;;5.15;;
48554;SDS011;34336;48.270;16.716;2024-02-26T09:42:14;6.20;;;4.85;;
48554;SDS011;34336;48.270;16.716;2024-02-26T09:44:44;6.15;;;4.47;;
48554;SDS011;34336;48.270;16.716;2024-02-26T09:47:12;8.23;;;4.82;;
48554;SDS011;34336;48.270;16.716;2024-02-26T09:49:47;7.22;;;4.32;;
48554;SDS011;34336;48.270;16.716;2024-02-26T09:52:16;6.70;;;4.00;;
48554;SDS011;34336;48.270;16.716;2024-02-26T09:54:46;5.40;;;3.45;;
48554;SDS011;34336;48.270;16.716;2024-02-26T09:57:15;6.40;;;3.45;;
48554;SDS011;34336;48.270;16.716;2024-02-26T09:59:44;5.35;;;4.00;;
48554;SDS011;34336;48.270;16.716;2024-02-26T10:02:13;4.13;;;2.88;;
48554;SDS011;34336;48.270;16.716;2024-02-26T10:04:41;5.15;;;2.80;;
48554;SDS011;34336;48.270;16.716;2024-02-26T10:07:16;4.80;;;3.00;;
48554;SDS011;34336;48.270;16.716;2024-02-26T10:09:44;5.78;;;2.97;;
48554;SDS011;34336;48.270;16.716;2024-02-26T10:12:11;5.45;;;3.10;;
48554;SDS011;34336;48.270;16.716;2024-02-26T10:14:40;5.30;;;2.75;;
48554;SDS011;34336;48.270;16.716;2024-02-26T10:17:07;5.93;;;2.78;;
48554;SDS011;34336;48.270;16.716;2024-02-26T10:19:36;5.20;;;3.00;;
48554;SDS011;34336;48.270;16.716;2024-02-26T10:22:05;4.57;;;3.30;;
48554;SDS011;34336;48.270;16.716;2024-02-26T10:24:33;4.95;;;2.80;;
48554;SDS011;34336;48.270;16.716;2024-02-26T10:27:03;4.20;;;2.80;;
48554;SDS011;34336;48.270;16.716;2024-02-26T10:29:32;3.50;;;2.65;;
48554;SDS011;34336;48.270;16.716;2024-02-26T10:32:00;3.88;;;2.45;;
48554;SDS011;34336;48.270;16.716;2024-02-26T10:34:28;3.72;;;2.38;;
48554;SDS011;34336;48.270;16.716;2024-02-26T10:36:56;5.82;;;2.38;;
48554;SDS011;34336;48.270;16.716;2024-02-26T10:39:24;4.63;;;2.40;;
48554;SDS011;34336;48.270;16.716;2024-02-26T10:41:52;3.25;;;2.47;;
48554;SDS011;34336;48.270;16.716;2024-02-26T10:44:19;4.88;;;2.00;;
48554;SDS011;34336;48.270;16.716;2024-02-26T10:46:47;4.38;;;1.90;;
48554;SDS011;34336;48.270;16.716;2024-02-26T10:49:19;6.00;;;2.25;;
48554;SDS011;34336;48.270;16.716;2024-02-26T10:51:55;4.18;;;2.10;;
48554;SDS011;34336;48.270;16.716;2024-02-26T10:54:26;5.25;;;2.53;;
48554;SDS011;34336;48.270;16.716;2024-02-26T10:56:58;4.30;;;2.35;;
48554;SDS011;34336;48.270;16.716;2024-02-26T10:59:26;3.73;;;2.03;;
48554;SDS011;34336;48.270;16.716;2024-02-26T11:01:54;3.13;;;2.33;;
48554;SDS011;34336;48.270;16.716;2024-02-26T11:04:22;2.97;;;2.10;;
48554;SDS011;34336;48.270;16.716;2024-02-26T11:06:51;2.80;;;2.03;;
48554;SDS011;34336;48.270;16.716;2024-02-26T11:09:22;4.28;;;2.20;;
48554;SDS011;34336;48.270;16.716;2024-02-26T11:11:50;4.50;;;2.50;;
48554;SDS011;34336;48.270;16.716;2024-02-26T11:14:22;5.22;;;2.70;;
48554;SDS011;34336;48.270;16.716;2024-02-26T11:16:52;4.97;;;3.15;;
48554;SDS011;34336;48.270;16.716;2024-02-26T11:19:21;4.43;;;2.60;;
48554;SDS011;34336;48.270;16.716;2024-02-26T11:21:49;4.65;;;2.47;;
48554;SDS011;34336;48.270;16.716;2024-02-26T11:24:17;5.85;;;2.53;;
48554;SDS011;34336;48.270;16.716;2024-02-26T11:26:50;3.78;;;2.45;;
48554;SDS011;34336;48.270;16.716;2024-02-26T11:29:22;3.60;;;2.10;;
48554;SDS011;34336;48.270;16.716;2024-02-26T11:31:50;3.95;;;2.13;;
48554;SDS011;34336;48.270;16.716;2024-02-26T11:34:18;3.85;;;2.20;;
48554;SDS011;34336;48.270;16.716;2024-02-26T11:36:46;4.35;;;2.35;;
48554;SDS011;34336;48.270;16.716;2024-02-26T11:39:14;3.17;;;1.95;;
48554;SDS011;34336;48.270;16.716;2024-02-26T11:41:43;4.47;;;2.28;;
48554;SDS011;34336;48.270;16.716;2024-02-26T11:44:11;4.55;;;2.22;;
48554;SDS011;34336;48.270;16.716;2024-02-26T11:46:42;3.47;;;2.13;;
48554;SDS011;34336;48.270;16.716;2024-02-26T11:51:55;4.15;;;1.98;;
48554;SDS011;34336;48.270;16.716;2024-02-26T11:57:19;3.28;;;2.00;;
48554;SDS011;34336;48.270;16.716;2024-02-26T11:59:48;1.98;;;1.40;;
48554;SDS011;34336;48.270;16.716;2024-02-26T12:05:06;2.88;;;1.35;;
48554;SDS011;34336;48.270;16.716;2024-02-26T12:07:34;2.40;;;1.43;;
48554;SDS011;34336;48.270;16.716;2024-02-26T12:12:43;2.67;;;1.45;;
48554;SDS011;34336;48.270;16.716;2024-02-26T12:15:10;3.00;;;1.42;;
48554;SDS011;34336;48.270;16.716;2024-02-26T12:17:39;3.25;;;2.00;;
48554;SDS011;34336;48.270;16.716;2024-02-26T12:20:08;3.22;;;1.80;;
48554;SDS011;34336;48.270;16.716;2024-02-26T12:22:38;3.35;;;1.48;;
48554;SDS011;34336;48.270;16.716;2024-02-26T12:25:09;3.80;;;1.55;;
48554;SDS011;34336;48.270;16.716;2024-02-26T12:27:36;4.38;;;1.85;;
48554;SDS011;34336;48.270;16.716;2024-02-26T12:30:04;2.85;;;1.45;;
48554;SDS011;34336;48.270;16.716;2024-02-26T12:32:33;2.50;;;1.65;;
48554;SDS011;34336;48.270;16.716;2024-02-26T12:35:00;2.15;;;1.20;;
48554;SDS011;34336;48.270;16.716;2024-02-26T12:37:28;1.67;;;1.25;;
48554;SDS011;34336;48.270;16.716;2024-02-26T12:39:56;3.03;;;1.27;;
48554;SDS011;34336;48.270;16.716;2024-02-26T12:42:24;3.45;;;1.25;;
48554;SDS011;34336;48.270;16.716;2024-02-26T12:44:52;2.60;;;1.05;;
48554;SDS011;34336;48.270;16.716;2024-02-26T12:47:20;3.58;;;1.40;;
48554;SDS011;34336;48.270;16.716;2024-02-26T12:49:47;2.65;;;1.58;;
48554;SDS011;34336;48.270;16.716;2024-02-26T12:52:16;1.90;;;1.50;;
48554;SDS011;34336;48.270;16.716;2024-02-26T12:54:44;3.42;;;1.40;;
48554;SDS011;34336;48.270;16.716;2024-02-26T12:57:11;3.25;;;1.20;;
48554;SDS011;34336;48.270;16.716;2024-02-26T12:59:39;3.92;;;1.08;;
48554;SDS011;34336;48.270;16.716;2024-02-26T13:02:07;2.92;;;1.30;;
48554;SDS011;34336;48.270;16.716;2024-02-26T13:04:35;3.60;;;1.35;;
48554;SDS011;34336;48.270;16.716;2024-02-26T13:07:04;2.10;;;1.10;;
48554;SDS011;34336;48.270;16.716;2024-02-26T13:09:32;2.28;;;1.00;;
48554;SDS011;34336;48.270;16.716;2024-02-26T13:12:04;2.15;;;1.27;;
48554;SDS011;34336;48.270;16.716;2024-02-26T13:14:33;1.80;;;1.25;;
48554;SDS011;34336;48.270;16.716;2024-02-26T13:17:01;1.88;;;1.30;;
48554;SDS011;34336;48.270;16.716;2024-02-26T13:19:29;2.63;;;1.17;;
48554;SDS011;34336;48.270;16.716;2024-02-26T13:22:03;2.72;;;1.05;;
48554;SDS011;34336;48.270;16.716;2024-02-26T13:24:32;1.48;;;1.00;;
48554;SDS011;34336;48.270;16.716;2024-02-26T13:26:59;2.10;;;1.00;;
48554;SDS011;34336;48.270;16.716;2024-02-26T13:29:30;2.53;;;1.40;;
48554;SDS011;34336;48.270;16.716;2024-02-26T13:31:58;2.58;;;1.20;;
48554;SDS011;34336;48.270;16.716;2024-02-26T13:34:26;2.78;;;1.10;;
48554;SDS011;34336;48.270;16.716;2024-02-26T13:36:54;3.70;;;1.40;;
48554;SDS011;34336;48.270;16.716;2024-02-26T13:39:25;1.40;;;1.02;;
48554;SDS011;34336;48.270;16.716;2024-02-26T13:41:54;3.20;;;1.13;;
48554;SDS011;34336;48.270;16.716;2024-02-26T13:44:23;2.17;;;1.17;;
48554;SDS011;34336;48.270;16.716;2024-02-26T13:46:51;2.85;;;1.20;;
48554;SDS011;34336;48.270;16.716;2024-02-26T13:49:19;1.45;;;0.88;;
48554;SDS011;34336;48.270;16.716;2024-02-26T13:51:47;3.35;;;1.25;;
48554;SDS011;34336;48.270;16.716;2024-02-26T13:54:14;2.30;;;1.00;;
48554;SDS011;34336;48.270;16.716;2024-02-26T13:56:42;1.42;;;0.95;;
48554;SDS011;34336;48.270;16.716;2024-02-26T13:59:14;2.33;;;1.23;;
48554;SDS011;34336;48.270;16.716;2024-02-26T14:01:42;4.20;;;1.20;;
48554;SDS011;34336;48.270;16.716;2024-02-26T14:04:09;1.42;;;1.13;;
48554;SDS011;34336;48.270;16.716;2024-02-26T14:06:38;4.13;;;0.93;;
48554;SDS011;34336;48.270;16.716;2024-02-26T14:09:06;3.60;;;1.10;;
48554;SDS011;34336;48.270;16.716;2024-02-26T14:11:34;2.58;;;1.10;;
48554;SDS011;34336;48.270;16.716;2024-02-26T14:14:02;2.92;;;1.00;;
48554;SDS011;34336;48.270;16.716;2024-02-26T14:16:30;1.25;;;0.95;;
48554;SDS011;34336;48.270;16.716;2024-02-26T14:18:58;1.33;;;1.10;;
48554;SDS011;34336;48.270;16.716;2024-02-26T14:21:26;1.92;;;1.30;;
48554;SDS011;34336;48.270;16.716;2024-02-26T14:23:54;2.58;;;1.13;;
48554;SDS011;34336;48.270;16.716;2024-02-26T14:26:22;2.65;;;1.02;;
48554;SDS011;34336;48.270;16.716;2024-02-26T14:28:50;1.70;;;0.80;;
48554;SDS011;34336;48.270;16.716;2024-02-26T14:31:18;1.48;;;0.70;;
48554;SDS011;34336;48.270;16.716;2024-02-26T14:33:46;2.72;;;0.93;;
48554;SDS011;34336;48.270;16.716;2024-02-26T14:36:18;2.10;;;1.08;;
48554;SDS011;34336;48.270;16.716;2024-02-26T14:38:45;2.10;;;0.80;;
48554;SDS011;34336;48.270;16.716;2024-02-26T14:41:13;1.17;;;0.88;;